createdAt,value
2018-12-02T00:02:52.903Z,89.50
2018-12-02T00:05:28.962Z,89.40
2018-12-02T00:08:03.790Z,89.40
2018-12-02T00:28:01.053Z,89.80
2018-12-02T00:30:38.951Z,90.00
2018-12-02T00:50:32.319Z,90.10
2018-12-02T00:53:05.918Z,89.60
2018-12-02T00:55:40.953Z,89.40
2018-12-02T00:58:18.034Z,89.30
2018-12-02T01:00:53.065Z,88.80
2018-12-02T01:20:47.051Z,88.70
2018-12-02T01:23:23.108Z,89.00
2018-12-02T01:25:57.116Z,89.20
2018-12-02T01:28:32.969Z,89.20
2018-12-02T01:31:06.979Z,89.30
2018-12-02T01:33:40.996Z,89.30
2018-12-02T01:36:14.999Z,89.50
2018-12-02T01:56:09.186Z,90.20
2018-12-02T01:58:45.041Z,90.00
2018-12-02T02:01:20.076Z,90.00
2018-12-02T02:03:55.107Z,90.20
2018-12-02T02:06:30.141Z,90.20
2018-12-02T02:26:23.304Z,90.20
2018-12-02T02:28:58.130Z,90.20
2018-12-02T02:48:53.140Z,90.50
2018-12-02T02:51:28.174Z,90.60
2018-12-02T02:54:03.207Z,90.60
2018-12-02T03:13:56.170Z,89.60
2018-12-02T03:16:31.201Z,89.90
2018-12-02T03:19:05.208Z,90.20
2018-12-02T03:21:39.603Z,90.50
2018-12-02T03:24:15.069Z,90.60
2018-12-02T03:44:08.233Z,91.30
2018-12-02T03:46:44.087Z,91.10
2018-12-02T04:06:39.299Z,90.00
2018-12-02T04:09:13.924Z,89.90
2018-12-02T04:11:48.955Z,90.00
2018-12-02T04:31:42.130Z,89.70
2018-12-02T04:34:16.161Z,89.40
2018-12-02T04:54:07.246Z,88.70
2018-12-02T04:56:42.074Z,88.80
2018-12-02T04:59:17.108Z,89.20
2018-12-02T05:19:10.272Z,89.50
2018-12-02T05:21:44.487Z,89.70
2018-12-02T05:41:42.158Z,90.30
2018-12-02T05:44:15.956Z,90.30
2018-12-02T05:46:52.017Z,89.90
2018-12-02T06:06:44.158Z,90.30
2018-12-02T06:09:18.168Z,90.30
2018-12-02T06:29:12.148Z,92.30
2018-12-02T06:31:47.389Z,92.30
2018-12-02T06:34:22.015Z,92.20
2018-12-02T06:54:16.204Z,92.60
2018-12-02T06:56:57.173Z,92.50
2018-12-02T07:16:48.494Z,92.70
2018-12-02T07:19:31.310Z,92.80
2018-12-02T07:22:16.174Z,92.80
2018-12-02T07:24:53.255Z,92.30
2018-12-02T07:27:28.288Z,91.90
2018-12-02T07:47:23.090Z,91.90
2018-12-02T07:50:03.246Z,92.30
2018-12-02T08:09:57.434Z,91.50
2018-12-02T08:12:33.698Z,91.60
2018-12-02T08:32:26.451Z,92.00
2018-12-02T08:35:01.482Z,91.90
2018-12-02T08:37:37.539Z,92.40
2018-12-02T08:40:14.825Z,92.20
2018-12-02T08:42:48.426Z,92.40
2018-12-02T09:02:43.434Z,89.20
2018-12-02T09:05:19.696Z,89.80
2018-12-02T09:25:12.861Z,92.00
2018-12-02T09:27:46.459Z,93.20
2018-12-02T09:30:22.518Z,93.30
2018-12-02T09:33:01.441Z,92.40
2018-12-02T09:35:35.453Z,93.60
2018-12-02T09:55:33.529Z,92.80
2018-12-02T09:58:15.530Z,92.90
2018-12-02T10:20:52.529Z,93.20
2018-12-02T10:23:27.566Z,93.50
2018-12-02T10:26:02.600Z,93.80
2018-12-02T10:28:38.661Z,94.10
2018-12-02T10:48:31.617Z,94.00
2018-12-02T10:51:06.649Z,94.10
2018-12-02T11:11:01.656Z,94.00
2018-12-02T11:13:37.511Z,94.10
2018-12-02T11:33:31.492Z,95.10
2018-12-02T11:36:05.712Z,95.10
2018-12-02T11:55:58.874Z,96.20
2018-12-02T11:58:33.699Z,96.10
2018-12-02T12:01:08.731Z,96.20
2018-12-02T12:03:45.612Z,96.20
2018-12-02T12:06:20.644Z,96.20
2018-12-02T12:08:55.676Z,95.90
2018-12-02T12:11:30.712Z,95.90
2018-12-02T12:31:24.695Z,96.50
2018-12-02T12:33:59.728Z,96.60
2018-12-02T12:54:00.687Z,96.70
2018-12-02T12:56:37.758Z,96.70
2018-12-02T13:02:05.640Z,96.20
2018-12-02T13:22:00.646Z,96.20
2018-12-02T13:24:35.066Z,96.20
2018-12-02T13:44:30.077Z,95.10
2018-12-02T13:47:09.819Z,95.50
2018-12-02T13:49:44.854Z,95.50
2018-12-02T13:52:20.090Z,95.40
2018-12-02T13:54:55.946Z,94.80
2018-12-02T14:14:49.107Z,95.60
2018-12-02T14:17:25.776Z,95.60
2018-12-02T14:37:23.861Z,96.50
2018-12-02T14:39:58.888Z,96.90
2018-12-02T14:59:51.851Z,97.60
2018-12-02T15:02:26.885Z,97.60
2018-12-02T15:22:20.867Z,97.70
2018-12-02T15:25:07.781Z,97.70
2018-12-02T15:44:59.920Z,97.70
2018-12-02T15:47:35.156Z,97.70
2018-12-02T16:10:17.898Z,97.70
2018-12-02T16:12:52.941Z,97.70
2018-12-02T16:15:30.627Z,97.60
2018-12-02T16:18:06.889Z,97.70
2018-12-02T16:38:01.089Z,97.70
2018-12-02T16:40:35.904Z,97.60
2018-12-02T17:00:35.008Z,97.70
2018-12-02T17:03:09.020Z,97.70
2018-12-02T17:23:02.796Z,97.70
2018-12-02T17:25:38.038Z,97.70
2018-12-02T17:48:18.111Z,97.70
2018-12-02T17:50:53.534Z,97.70
2018-12-02T17:53:30.227Z,97.70
2018-12-02T17:56:05.057Z,97.70
2018-12-02T17:58:39.067Z,97.70
2018-12-02T18:01:15.124Z,97.70
2018-12-02T18:03:49.952Z,97.70
2018-12-02T18:06:26.417Z,97.70
2018-12-02T18:09:01.042Z,97.70
2018-12-02T18:11:36.075Z,97.70
2018-12-02T18:14:12.549Z,97.70
2018-12-02T18:16:50.256Z,97.70
2018-12-02T18:19:26.297Z,97.70
2018-12-02T18:22:00.101Z,97.70
2018-12-02T18:24:35.135Z,97.70
2018-12-02T18:27:11.205Z,97.70
2018-12-02T18:29:47.047Z,97.70
2018-12-02T18:32:22.078Z,97.70
2018-12-02T18:35:01.006Z,97.70
2018-12-02T18:37:36.039Z,97.70
2018-12-02T18:40:13.117Z,97.70
2018-12-02T18:42:48.151Z,97.20
2018-12-02T18:45:24.209Z,97.30
2018-12-02T18:47:58.015Z,97.30
2018-12-02T18:50:36.469Z,97.60
2018-12-02T18:53:11.150Z,97.50
2018-12-02T18:55:46.188Z,97.50
2018-12-02T18:58:20.196Z,97.60
2018-12-02T19:01:00.361Z,97.70
2018-12-02T19:03:37.842Z,97.60
2018-12-02T19:06:12.056Z,97.70
2018-12-02T19:08:46.589Z,97.50
2018-12-02T19:11:21.919Z,97.50
2018-12-02T19:13:58.177Z,97.50
2018-12-02T19:16:33.599Z,97.30
2018-12-02T19:19:09.065Z,97.30
2018-12-02T19:21:43.894Z,97.40
2018-12-02T19:24:17.082Z,97.40
2018-12-02T19:26:52.673Z,97.30
2018-12-02T19:29:27.152Z,97.50
2018-12-02T19:32:04.034Z,97.20
2018-12-02T19:34:39.267Z,97.30
2018-12-02T19:37:15.321Z,97.40
2018-12-02T19:39:59.191Z,97.40
2018-12-02T19:42:34.200Z,97.60
2018-12-02T19:45:09.235Z,97.70
2018-12-02T19:47:43.241Z,97.70
2018-12-02T19:50:20.322Z,97.70
2018-12-02T19:52:55.355Z,97.70
2018-12-02T19:55:29.569Z,97.70
2018-12-02T19:58:03.375Z,97.70
2018-12-02T20:00:44.347Z,97.70
2018-12-02T20:03:21.428Z,97.70
2018-12-02T20:05:55.438Z,97.70
2018-12-02T20:08:30.325Z,97.70
2018-12-02T20:11:04.837Z,97.70
2018-12-02T20:13:45.456Z,97.70
2018-12-02T20:16:23.356Z,97.70
2018-12-02T20:18:59.619Z,97.70
2018-12-02T20:21:34.450Z,97.70
2018-12-02T20:24:13.368Z,97.70
2018-12-02T20:26:48.201Z,97.70
2018-12-02T20:29:23.437Z,97.70
2018-12-02T20:31:58.473Z,97.70
2018-12-02T20:34:34.330Z,97.70
2018-12-02T20:37:09.150Z,97.70
2018-12-02T20:39:44.392Z,97.70
2018-12-02T20:42:19.424Z,97.70
2018-12-02T20:44:58.354Z,97.70
2018-12-02T20:47:33.385Z,97.70
2018-12-02T20:50:08.415Z,97.70
2018-12-02T20:52:43.452Z,97.70
2018-12-02T20:55:19.301Z,97.70
2018-12-02T20:57:55.359Z,97.70
2018-12-02T21:00:29.578Z,97.70
2018-12-02T21:03:32.461Z,97.70
2018-12-02T21:06:12.408Z,97.70
2018-12-02T21:08:47.852Z,97.70
2018-12-02T21:11:22.479Z,97.70
2018-12-02T21:13:56.494Z,97.70
2018-12-02T21:16:31.516Z,97.70
2018-12-02T21:19:07.379Z,97.70
2018-12-02T21:21:42.405Z,97.70
2018-12-02T21:24:17.645Z,97.70
2018-12-02T21:26:52.472Z,97.70
2018-12-02T21:29:27.301Z,97.70
2018-12-02T21:32:01.516Z,97.70
2018-12-02T21:34:37.367Z,97.70
2018-12-02T21:37:11.173Z,97.70
2018-12-02T21:39:45.386Z,97.70
2018-12-02T21:42:21.444Z,97.70
2018-12-02T21:44:56.480Z,97.70
2018-12-02T21:47:31.513Z,97.70
2018-12-02T21:50:07.365Z,97.70
2018-12-02T21:52:45.266Z,97.70
2018-12-02T21:55:20.503Z,97.70
2018-12-02T21:57:54.514Z,97.70
2018-12-02T22:00:33.438Z,97.70
2018-12-02T22:03:08.469Z,97.70
2018-12-02T22:05:42.482Z,97.70
2018-12-02T22:08:18.332Z,97.70
2018-12-02T22:10:53.571Z,97.70
2018-12-02T22:13:27.582Z,97.70
2018-12-02T22:16:02.617Z,97.70
2018-12-02T22:18:38.025Z,97.70
2018-12-02T22:21:13.500Z,97.70
2018-12-02T22:23:48.538Z,97.70
2018-12-02T22:26:22.749Z,97.70
2018-12-02T22:28:57.577Z,97.70
2018-12-02T22:31:32.611Z,97.70
2018-12-02T22:34:08.463Z,97.70
2018-12-02T22:36:42.880Z,97.70
2018-12-02T22:39:16.482Z,97.70
2018-12-02T22:41:51.515Z,97.70
2018-12-02T22:44:31.350Z,97.70
2018-12-02T22:47:00.558Z,97.70
2018-12-02T22:49:34.772Z,97.70
2018-12-02T22:52:09.600Z,97.70
2018-12-02T22:54:43.629Z,97.70
2018-12-02T22:57:18.644Z,97.70
2018-12-02T22:59:53.678Z,97.70
2018-12-02T23:02:32.398Z,97.70
2018-12-02T23:05:06.614Z,97.70
2018-12-02T23:07:42.052Z,97.70
2018-12-02T23:10:16.677Z,97.70
2018-12-02T23:12:50.687Z,97.70
2018-12-02T23:15:24.698Z,97.70
2018-12-02T23:18:00.550Z,97.70
2018-12-02T23:20:34.560Z,97.70
2018-12-02T23:23:08.577Z,97.70
2018-12-02T23:25:42.581Z,97.70
2018-12-02T23:28:17.614Z,97.70
2018-12-02T23:30:51.622Z,97.70
2018-12-02T23:33:26.656Z,97.70
2018-12-02T23:36:02.512Z,97.70
2018-12-02T23:38:37.539Z,97.70
2018-12-02T23:41:12.574Z,97.70
2018-12-02T23:43:47.609Z,97.70
2018-12-02T23:46:22.642Z,97.70
2018-12-02T23:48:58.902Z,97.70
2018-12-02T23:51:32.711Z,97.70
2018-12-02T23:54:07.743Z,97.70
2018-12-02T23:56:43.601Z,97.70
2018-12-02T23:59:20.677Z,97.70
